Tiempo atmosférico en la estación meteorológica de Lugo Aeropuerto, Lugo (445 m.)



Fecha
DESCASC
Temp. máxima en grados centígrados (hora)
DESCASC
Temp. mínima en grados centígrados (hora)
DESCASC
Temp. media en grados centígrados
DESCASC
Racha de viento máxima en m/sg (hora)
DESCASC
Velocidad máxima media en intervalos de 10 minutos(hora)
DESCASC
Precipitaciones diarias en mm
DESCASC
Precipitaciones de 00:00 a 06:00 en mm
DESCASC
Precipitaciones de 06:00 a 12:00 en mm
DESCASC
Precipitaciones de 12:00 a 18:00 en mm
DESCASC
Precipitaciones de 18:00 a 24:00 en mm
DESCASC
19-01-2020 9.4 (14:30) 4.2 (20:10) 6.8 13.89 (12:40) 7.5 (12:40) 1.8 1.8 0 0 0
18-01-2020 11.3 (13:20) 5.7 (01:10) 8.5 12.5 (14:00) 5.56 (09:40) 13.8 0.4 0 4.4 9
17-01-2020 10 (14:10) 3.9 (09:20) 7 9.44 (02:00) 5 (02:10) 6.2 5.6 0.6 0 0
16-01-2020 13.8 (11:30) 7.4 (00:00) 10.6 16.11 (12:30) 7.78 (12:10) 16.2 0.8 0 6.6 8.8
15-01-2020 13.7 (16:40) 7.5 (00:00) 10.6 14.44 (00:10) 8.06 (05:20) 21.6 13.8 7.8 0 0
14-01-2020 13.9 (14:10) 9.4 (00:00) 11.6 14.44 (11:50) 7.22 (14:00) 0 0 0 0 0
13-01-2020 11.3 (14:10) 5.8 (00:00) 8.6 13.89 (21:20) 6.11 (15:40) 0 0 0 0 0
12-01-2020 14 (17:20) -2.7 (-00:0) 5.6 2.5 (23:59) 1.39 (17:00) 0 0 0 0 0
11-01-2020 12.1 (16:40) -2.4 (-00:0) 4.9 4.44 (15:10) 2.5 (15:20) 0 0 0 0 0
10-01-2020 9.8 (15:50) 0.4 (00:00) 5.1 5.56 (15:50) 3.33 (15:50) 0.4 0.2 0.2 0 0
09-01-2020 12.9 (13:00) 4.9 (00:00) 8.9 14.17 (13:40) 6.94 (13:40) 5 0 0 4.8 0.2
08-01-2020 15.7 (15:50) 4 (00:00) 9.8 4.72 (14:50) 2.78 (15:00) 0 0 0 0 0
07-01-2020 14 (17:20) -3.5 (-00:0) 5.3 3.61 (16:00) 2.5 (16:00) 0 0 0 0 0
06-01-2020 10.3 (15:30) -4 (-00:0) 3.2 5.28 (14:50) 3.06 (15:40) 0 0 0 0 0
05-01-2020 9.9 (15:40) -0.2 (00:00) 4.8 3.89 (02:20) 2.22 (02:20) 0 0 0 0 0
04-01-2020 11.6 (16:30) 0.4 (00:00) 6 5.28 (12:00) 2.78 (14:10) 0 0 0 0 0
03-01-2020 13 (15:20) 3.6 (00:00) 8.3 8.33 (00:50) 3.61 (00:50) 0.6 0 0.6 0 0
02-01-2020 11.1 (15:40) -4.1 (-00:0) 3.5 7.5 (21:40) 4.17 (16:50) 0.2 0 0.2 0 0
01-01-2020 4.2 (00:00) -1.6 (-00:0) 1.3 2.78 (01:30) 1.39 (01:30) 0.2 0.2 0 0 0
31-12-2019 -- (--) -- (--) -- -- (--) -- (--) -- 0 0 -- --
30-12-2019 -- (--) -- (--) -- -- (--) -- (--) -- 0 0 0 --
29-12-2019 14.1 (16:10) -3.4 (-00:0) 5.4 2.22 (23:30) 1.11 (19:40) 0 0 0 0 0
28-12-2019 11.6 (16:40) -4.5 (-00:0) 3.6 3.06 (03:10) 1.39 (03:10) 0.2 0 0.2 0 0
27-12-2019 3.9 (16:50) -3.5 (-00:0) 0.2 2.5 (14:00) 1.39 (00:40) 0 0 0 0 0
26-12-2019 13.5 (16:10) 0.1 (00:00) 6.8 8.06 (00:10) 5 (00:20) 0 0 0 0 0
25-12-2019 16.2 (17:00) 4.6 (00:00) 10.4 13.33 (21:00) 6.11 (20:30) 0.2 0 0 0 0.2
24-12-2019 18.2 (16:00) 6.9 (00:00) 12.6 8.33 (11:30) 5 (11:30) 0.2 0 0.2 0 0
23-12-2019 12.9 (23:50) 6.8 (00:00) 9.8 10.56 (13:50) 4.72 (13:50) 0 0 0 0 0

Gráficas

Temp. máximas Temp. mínimas Temp. medias Precipitaciones Rachas de viento máximas Velocidades máximas media en intervalos de 10 minutos

Datos horarios

Fecha y hora oficial Temperatura (ºC) Velocidad del viento (km/h) Dirección del viento Racha (km/h) Dirección de racha Precipitación (mm) Presión (hPa) Tendencia (hPa) Humedad (%)
2020-01-21 23:00:00 5.3 12 Nordeste 38 Este 0 971.4 -0.7 78
2020-01-21 22:00:00 5.4 14 Nordeste 48 Nordeste 0 971.7 -0.4 78
2020-01-21 21:00:00 5.7 22 Nordeste 46 Este 0 971.7 -0.1 75
2020-01-21 20:00:00 5.7 18 Nordeste 39 Nordeste 0 972.1 0.8 75
2020-01-21 19:00:00 6 17 Nordeste 47 Este 0 972.1 0.2 77
2020-01-21 18:00:00 6.3 27 Nordeste 60 Nordeste 0 971.8 -0.9 76
2020-01-21 17:00:00 6.5 23 Nordeste 48 Nordeste 0 971.3 -2.1 78
2020-01-21 16:00:00 6.4 15 Nordeste 37 Nordeste 0 971.9 -1.9 81
2020-01-21 15:00:00 6.8 19 Nordeste 45 Nordeste 0 972.7 -2.2 78
2020-01-21 14:00:00 6.9 25 Nordeste 50 Nordeste 0 973.4 -2.3 73
2020-01-21 13:00:00 6.9 22 Nordeste 52 Nordeste 0 973.8 -1.3 73
2020-01-21 12:00:00 5.8 13 Nordeste 39 Nordeste 0 974.9 -0.6 78
2020-01-21 11:00:00 5.6 15 Nordeste 34 Este 0 975.7 -0.2 78
2020-01-21 10:00:00 5 14 Nordeste 32 Nordeste 0 975.1 -0.5 82
2020-01-21 09:00:00 4.3 8 Nordeste 36 Nordeste 0 975.5 -0.2 84
2020-01-21 08:00:00 4.1 7 Nordeste 42 Nordeste 0 975.9 -0.4 82
2020-01-21 07:00:00 3.5 11 Nordeste 27 Nordeste 0 975.6 -0.8 86
2020-01-21 06:00:00 3.1 6 Norte 24 Nordeste 0 975.7 -0.8 85
2020-01-21 05:00:00 3.2 9 Nordeste 32 Este 0 976.3 -0.7 81
2020-01-21 04:00:00 3.9 18 Nordeste 51 Nordeste 0 976.4 -1.4 74
2020-01-21 03:00:00 4.3 19 Este 38 Nordeste 0 976.5 -1.2 70
2020-01-21 02:00:00 4 15 Nordeste 42 Nordeste 0 977 -0.7 71
2020-01-21 01:00:00 3.2 8 Nordeste 34 Este 0 977.8 -0.2 72
2020-01-21 00:00:00 3.4 15 Nordeste 40 Este 0 977.7 -0.3 69
2020-01-20 23:00:00 3.2 14 Nordeste 31 Este 0 977.7 0 69
2020-01-20 22:00:00 3.3 11 Nordeste 42 Nordeste 0 978 0.3 70
2020-01-20 21:00:00 3.3 18 Nordeste 35 Nordeste 0 978 1.2 65
2020-01-20 20:00:00 3.6 19 Nordeste 44 Nordeste 0 977.7 1.4 64
2020-01-20 19:00:00 4.1 18 Nordeste 54 Nordeste 0 977.7 0.5 64
2020-01-20 18:00:00 5 27 Nordeste 59 Este 0 976.8 -0.8 58
2020-01-20 17:00:00 5.5 36 Nordeste 68 Nordeste 0 976.3 -1.6 61
2020-01-20 16:00:00 6.7 31 Este 55 Este 0 977.2 -2.6 60
2020-01-20 15:00:00 7.2 18 Nordeste 62 Nordeste 0 977.6 -2.5 57
2020-01-20 14:00:00 6.7 31 Nordeste 62 Nordeste 0 977.9 -2.1 52
2020-01-20 13:00:00 6.2 21 Este 55 Nordeste 0 979.8 0.1 59
2020-01-20 12:00:00 6.3 28 Nordeste 53 Este 0 980.1 0.7 58
2020-01-20 11:00:00 5.1 23 Nordeste 62 Nordeste 0 980 0.8 60
2020-01-20 10:00:00 4.6 17 Nordeste 39 Nordeste 0 979.7 0.6 65
2020-01-20 09:00:00 4.3 21 Nordeste 51 Este 0 979.4 0 68
2020-01-20 08:00:00 3.9 20 Nordeste 46 Nordeste 0 979.2 -0.7 67
2020-01-20 07:00:00 3.8 26 Este 49 Nordeste 0 979.1 -1.2 73
2020-01-20 06:00:00 3.6 19 Este 34 Nordeste 0 979.4 -1.2 81
2020-01-20 05:00:00 3.7 17 Nordeste 38 Nordeste 0 979.9 -1.3 81
2020-01-20 04:00:00 4.8 17 Este 49 Nordeste 0 980.3 -1.2 64
2020-01-20 03:00:00 4.6 18 Nordeste 48 Este 0 980.6 -1 71
2020-01-20 02:00:00 5.4 19 Nordeste 41 Este 0 981.2 -0.5 61
2020-01-20 01:00:00 5.5 16 Nordeste 48 Este 0 981.5 0.3 63
2020-01-20 00:00:00 5.4 22 Este 45 Nordeste 0 981.6 0.4 61
2020-01-19 23:00:00 5 18 Nordeste 46 Este 0 981.7 0.5 62
2020-01-19 22:00:00 4.7 16 Nordeste 46 Nordeste 0 981.2 0.2 64
2020-01-19 21:00:00 4.3 14 Nordeste 33 Este 0 981.2 0.6 68
2020-01-19 20:00:00 4.3 10 Nordeste 32 Nordeste 0 981.2 1 68
2020-01-19 19:00:00 4.6 11 Nordeste 30 Nordeste 0 981 1 68
2020-01-19 18:00:00 6 13 Nordeste 35 Nordeste 0 980.6 0.8 63
2020-01-19 17:00:00 7.3 18 Nordeste 37 Nordeste 0 980.2 0.2 61
2020-01-19 16:00:00 8.3 14 Nordeste 40 Nordeste 0 980 -0.5 62
2020-01-19 15:00:00 9.1 15 Nordeste 41 Este 0 979.8 -1.1 60
2020-01-19 14:00:00 8.8 23 Nordeste 42 Este 0 980 -0.3 61
2020-01-19 13:00:00 8.4 19 Nordeste 50 Nordeste 0 980.5 0.8 70
2020-01-19 12:00:00 6.9 19 Nordeste 42 Este 0 980.9 2.2 79
2020-01-19 11:00:00 7.3 13 Nordeste 42 Nordeste 0 980.3 2.4 78
2020-01-19 10:00:00 5.9 12 Nordeste 35 Nordeste 0 979.7 2.6 81
2020-01-19 09:00:00 5.2 11 Nordeste 32 Este 0 978.7 2.9 87
2020-01-19 08:00:00 5.6 9 Nordeste 35 Nordeste 0 977.9 3.2 89
2020-01-19 07:00:00 6.2 12 Nordeste 35 Nordeste 0 977.1 3.2 93
2020-01-19 06:00:00 6.3 9 Nordeste 39 Nordeste 0 975.8 2.7 94
2020-01-19 05:00:00 6.5 19 Nordeste 42 Este 0.2 974.7 2.3 95
2020-01-19 04:00:00 7 14 Nordeste 40 Nordeste 0.6 973.9 2.2 98
2020-01-19 03:00:00 7.5 13 Nordeste 36 Nordeste 0.4 973.1 2 99
2020-01-19 02:00:00 6.9 6 Nordeste 26 Nordeste 0.4 972.4 1.9 100
2020-01-19 01:00:00 6.8 3 Oeste 8 Noroeste 0.2 971.7 2 99
2020-01-19 00:00:00 6.4 3 Oeste 6 Noroeste 0 971.1 2.2 98
2020-01-18 23:00:00 6.6 2 Oeste 10 Este 0.2 970.5 1.3 99
2020-01-18 22:00:00 6.6 2 Sur 8 Sur 0 969.7 1.2 98
2020-01-18 21:00:00 6.4 3 Sur 10 Sur 1 968.9 0.9 98
2020-01-18 20:00:00 6.8 2 Sur 9 Este 6.4 969.2 1.3 98
2020-01-18 19:00:00 7 4 Sudoeste 10 Sudoeste 1.4 968.5 1.3 95
2020-01-18 18:00:00 7.1 4 Sur 25 Noroeste 0.8 968 1 93
2020-01-18 17:00:00 8.5 13 Noroeste 28 Noroeste 0.8 967.9 0.9 85
2020-01-18 16:00:00 9.9 10 Oeste 22 Oeste 0 967.2 1.4 78
2020-01-18 15:00:00 9.1 9 Oeste 35 Oeste 0.6 967 0 91
2020-01-18 14:00:00 10.1 19 Noroeste 45 Noroeste 1.4 967 -0.1 86
2020-01-18 13:00:00 11 17 Sudoeste 38 Sudoeste 0.8 965.8 -0.7 92
2020-01-18 12:00:00 10.4 16 Sudoeste 33 Sudoeste 0 967 0 84
2020-01-18 11:00:00 10.4 14 Sudoeste 35 Sudoeste 0 967.1 -1 77
2020-01-18 10:00:00 9.9 17 Sudoeste 41 Sudoeste 0 966.5 -2.2 76
2020-01-18 09:00:00 9.6 13 Sur 34 Sudeste 0 967 -2.7 77
2020-01-18 08:00:00 9 14 Sur 36 Sudoeste 0 968.1 -2.8 77
2020-01-18 07:00:00 8 7 Sur 19 Sur 0 968.7 -3.6 75
2020-01-18 06:00:00 6.6 4 Sur 12 Sudeste 0.2 969.7 -3.2 81
2020-01-18 05:00:00 7 2 Sudoeste 9 Sudeste 0.2 970.9 -2.7 79
2020-01-18 04:00:00 7.6 4 Sudeste 13 Sur 0 972.3 -2.6 74
2020-01-18 03:00:00 7.1 5 Sur 11 Sur 0 972.9 -2.9 68
2020-01-18 02:00:00 6.9 5 Sur 17 Sur 0 973.6 -2.5 71
2020-01-18 01:00:00 5.8 0 Calma 6 Noroeste 0 974.9 -2 87
2020-01-18 00:00:00 6.3 0 Calma 7 Sur 0 975.8 -1.2 85
2020-01-17 23:00:00 6.5 5 Sur 9 Sudeste 0 976.1 -1.4 77
2020-01-17 22:00:00 6.5 3 Sur 10 Sur 0 976.9 -0.8 81
2020-01-17 21:00:00 6.5 5 Sudeste 10 Sudeste 0 977 -0.6 83
2020-01-17 20:00:00 6.4 4 Sur 10 Sudeste 0 977.5 -0.1 85
2020-01-17 19:00:00 6.5 3 Sudoeste 10 Sudoeste 0 977.7 0 85
2020-01-17 18:00:00 7.8 2 Sur 12 Sudoeste 0 977.6 -0.2 78
2020-01-17 17:00:00 8.4 8 Sudoeste 19 Oeste 0 977.6 -0.3 71
2020-01-17 16:00:00 9.1 11 Oeste 18 Oeste 0 977.7 -0.5 67
2020-01-17 15:00:00 8.7 6 Oeste 30 Oeste 0 977.8 -0.5 78
2020-01-17 14:00:00 9.8 15 Sudoeste 24 Oeste 0 977.9 0.5 65
2020-01-17 13:00:00 8.7 11 Sudoeste 22 Oeste 0 978.2 1.7 72
2020-01-17 12:00:00 7.2 9 Sudoeste 22 Sur 0 978.3 2.9 86
2020-01-17 11:00:00 6 8 Sudoeste 19 Sur 0 977.4 2.5 91
2020-01-17 10:00:00 4.4 6 Sur 16 Sudoeste 0 976.5 3.1 94
2020-01-17 09:00:00 4 8 Sudoeste 16 Sudoeste 0 975.4 3.1 94
2020-01-17 08:00:00 4.9 10 Sudoeste 28 Oeste 0.6 974.9 3.3 93
2020-01-17 07:00:00 5.8 10 Sudoeste 24 Sudoeste 0 973.4 2.1 94
2020-01-17 06:00:00 6.2 13 Sudoeste 25 Sudoeste 0 972.3 1.8 90
2020-01-17 05:00:00 6.6 10 Sudoeste 19 Oeste 0.2 971.6 1.6 92
2020-01-17 04:00:00 6.9 12 Sudoeste 23 Sudoeste 0 971.3 2 93
2020-01-17 03:00:00 6.6 9 Sudoeste 28 Oeste 0.2 970.5 2.2 94
2020-01-17 02:00:00 6.5 17 Sudoeste 34 Oeste 5.2 970 2.4 94
2020-01-17 01:00:00 7.9 10 Sudoeste 25 Sudoeste 0 969.3 1.8 92
2020-01-17 00:00:00 8.2 12 Sudoeste 25 Sudoeste 0 968.3 1.3 92
2020-01-16 23:00:00 8.1 12 Sudoeste 26 Sudoeste 0 967.6 1.8 91
2020-01-16 22:00:00 8.2 10 Sur 25 Sudoeste 0 967.5 2.1 92
2020-01-16 21:00:00 7.5 10 Sudoeste 20 Sur 0 967 1.3 96
2020-01-16 20:00:00 7.9 10 Sudoeste 25 Sudoeste 1 965.8 3.2 93
2020-01-16 19:00:00 7.7 9 Sudoeste 37 Oeste 7.8 965.4 2.8 93
2020-01-16 18:00:00 8.4 21 Sudoeste 44 Sudoeste 5.8 965.7 3 91
2020-01-16 17:00:00 10.7 14 Sudoeste 49 Sudoeste 0.4 962.6 -0.8 77
2020-01-16 16:00:00 12.2 19 Sudoeste 51 Sudoeste 0 962.6 -1.3 70
2020-01-16 15:00:00 12.2 21 Sudoeste 49 Sudoeste 0.4 962.7 -1 76
2020-01-16 14:00:00 12.3 20 Sudoeste 48 Sudoeste 0 963.4 -0.8 80
2020-01-16 13:00:00 12.9 22 Sudoeste 58 Sudoeste 0 963.9 -0.5 78
2020-01-16 12:00:00 13.7 26 Sudoeste 57 Sudoeste 0 963.7 -0.2 73
2020-01-16 11:00:00 13.3 20 Sudoeste 47 Sur 0 964.2 0.5 73
2020-01-16 10:00:00 13.1 21 Sudoeste 46 Sudoeste 0 964.4 0.5 73
2020-01-16 09:00:00 12.7 20 Sudoeste 54 Sudoeste 0 963.9 -0.4 75
2020-01-16 08:00:00 12.2 19 Sudoeste 43 Sudoeste 0 963.7 -1.1 82
2020-01-16 07:00:00 11.7 18 Sur 40 Sudoeste 0 963.9 -0.7 89
2020-01-16 06:00:00 11.5 14 Sudoeste 34 Sur 0.4 964.3 -0.5 94
2020-01-16 05:00:00 11.7 14 Sudoeste 37 Sudoeste 0.4 964.8 -0.6 89
2020-01-16 04:00:00 13 15 Sudoeste 36 Sudoeste 0 964.6 -1.2 69
2020-01-16 03:00:00 12.7 15 Sur 45 Sur 0 964.8 -1.4 71
2020-01-16 02:00:00 12.7 17 Sudoeste 40 Sur 0 965.4 -0.7 72
2020-01-16 01:00:00 12.8 15 Sudoeste 37 Sudoeste 0 965.8 -0.6 74
2020-01-16 00:00:00 12.5 11 Sudoeste 28 Sudoeste 0 966.2 -0.5 76
2020-01-15 23:00:00 11.6 9 Sur 23 Sur 0 966.1 -1 76
2020-01-15 22:00:00 10.6 7 Sudoeste 18 Sur 0 966.4 -0.8 76
2020-01-15 21:00:00 8.8 5 Sur 13 Sudoeste 0 966.7 -0.3 80
2020-01-15 20:00:00 8.6 4 Sudeste 12 Sur 0 967.1 0.5 90
2020-01-15 19:00:00 9.5 3 Sur 8 Sur 0 967.2 0.8 83
2020-01-15 18:00:00 12.6 6 Sudoeste 25 Sudoeste 0 967 0.9 75
2020-01-15 17:00:00 13.5 15 Sudoeste 30 Sudoeste 0 966.6 0.3 69
2020-01-15 16:00:00 13.3 16 Sudoeste 30 Sudoeste 0 966.4 -0.3 69
2020-01-15 15:00:00 12.6 12 Sudoeste 25 Sudoeste 0 966.1 -0.9 74
2020-01-15 14:00:00 10.4 7 Sudoeste 17 Sudoeste 0 966.3 0.4 85
2020-01-15 13:00:00 10.1 7 Sudoeste 14 Oeste 0 966.7 2 83
2020-01-15 12:00:00 9.4 7 Sudoeste 14 Oeste 0 967 3.5 88
2020-01-15 11:00:00 8.4 5 Oeste 10 Sudoeste 0 965.9 4.1 94
2020-01-15 10:00:00 8.1 6 Sudoeste 15 Oeste 0 964.7 4.9 96
2020-01-15 09:00:00 8.2 11 Oeste 20 Oeste 0.2 963.5 5.2 97
2020-01-15 08:00:00 8.5 8 Sudoeste 28 Oeste 6.4 961.8 3.5 96
2020-01-15 07:00:00 10.2 9 Sudoeste 39 Sudoeste 1.2 959.8 2.4 96
2020-01-15 06:00:00 9.8 12 Sur 49 Oeste 11 958.3 1.2 97
2020-01-15 05:00:00 10 14 Sudoeste 38 Sudoeste 2.8 958.3 0.5 94
2020-01-15 04:00:00 11.1 18 Sudoeste 44 Sur 0 957.4 -0.6 81
2020-01-15 03:00:00 11.1 21 Sudoeste 48 Sudoeste 0 957.1 -1 80
2020-01-15 02:00:00 11 18 Sudoeste 44 Sudoeste 0 957.8 -0.9 81
2020-01-15 01:00:00 11.1 21 Sudoeste 52 Sudoeste 0 958 -0.9 77
2020-01-15 00:00:00 11.4 21 Sudoeste 42 Sudoeste 0 958.1 -1.5 72
2020-01-14 23:00:00 11.2 20 Sudoeste 46 Sur 0 958.7 -1.4 71
2020-01-14 22:00:00 10.8 18 Sudoeste 52 Sudoeste 0 958.9 -1.3 71
2020-01-14 21:00:00 10.8 18 Sudoeste 45 Sudoeste 0 959.6 -0.1 70
2020-01-14 20:00:00 10.9 15 Sudoeste 42 Sudoeste 0 960.1 -0.1 71
2020-01-14 19:00:00 11.2 22 Sudoeste 46 Sudoeste 0 960.2 0.1 70
2020-01-14 18:00:00 10.9 21 Sur 52 Sur 0 959.7 -0.4 73
2020-01-14 17:00:00 10.9 24 Sudoeste 51 Sudoeste 0 960.2 -0.6 76
2020-01-14 16:00:00 11.7 21 Sudoeste 44 Sudoeste 0 960.1 -2.1 73
2020-01-14 15:00:00 13.2 18 Sudoeste 49 Sudoeste 0 960.1 -2.8 61
2020-01-14 14:00:00 13.7 26 Sudoeste 50 Sur 0 960.8 -1.7 57
2020-01-14 13:00:00 11.9 18 Sudoeste 46 Sudoeste 0 962.2 -0.2 65
2020-01-14 12:00:00 11.6 25 Sudoeste 52 Sur 0 962.9 0.6 67
2020-01-14 11:00:00 10.9 18 Sudoeste 36 Sudoeste 0 962.5 0.1 69
2020-01-14 10:00:00 10.2 14 Sudoeste 41 Sur 0 962.4 0.4 72
2020-01-14 09:00:00 9.8 17 Sudoeste 37 Sur 0 962.3 0.2 75
2020-01-14 08:00:00 9.7 14 Sur 37 Sudoeste 0 962.4 0.1 75
2020-01-14 07:00:00 9.8 14 Sur 34 Sur 0 962 -0.7 75
2020-01-14 06:00:00 9.6 15 Sur 48 Sur 0 962.1 -0.7 76
2020-01-14 05:00:00 9.6 16 Sur 40 Sur 0 962.3 -0.7 76
2020-01-14 04:00:00 9.6 14 Sudoeste 34 Sur 0 962.7 -1 77
2020-01-14 03:00:00 9.5 15 Sur 45 Sur 0 962.8 -1.1 76
2020-01-14 02:00:00 9.7 15 Sudoeste 44 Sudoeste 0 963 -0.9 76
2020-01-14 01:00:00 9.6 14 Sudoeste 39 Sudoeste 0 963.7 -0.3 75
2020-01-14 00:00:00 9.6 14 Sudoeste 39 Sudoeste 0 963.9 -0.5 76
2020-01-13 23:00:00 9.3 16 Sur 39 Sudoeste 0 963.9 -1.4 76
2020-01-13 22:00:00 8.9 16 Sudoeste 50 Sudoeste 0 964 -1 75
2020-01-13 21:00:00 8.7 18 Sudoeste 44 Sur 0 964.4 -0.1 75
2020-01-13 20:00:00 8.8 21 Sudoeste 44 Sudoeste 0 965.3 0.3 70
2020-01-13 19:00:00 9.2 19 Sudoeste 43 Sudoeste 0 965 0.1 66
2020-01-13 18:00:00 9.5 15 Sudoeste 41 Sudoeste 0 964.5 -1.1 64
2020-01-13 17:00:00 10.6 18 Sudoeste 40 Oeste 0 965 -1.4 57
2020-01-13 16:00:00 10.7 18 Sudoeste 45 Sudoeste 0 964.9 -2.7 53
2020-01-13 15:00:00 9.8 21 Sudoeste 42 Sudoeste 0 965.6 -3.3 53
2020-01-13 14:00:00 10.9 19 Sudoeste 40 Sudoeste 0 966.4 -3.1 49
2020-01-13 13:00:00 10.2 22 Sudoeste 44 Sudoeste 0 967.6 -1.8 51
2020-01-13 12:00:00 9.6 12 Sur 32 Sudoeste 0 968.9 -0.7 57
2020-01-13 11:00:00 7.5 12 Sudoeste 22 Sur 0 969.5 0.1 66
2020-01-13 10:00:00 6.8 11 Sur 23 Sudoeste 0 969.4 -0.2 67
2020-01-13 09:00:00 6 4 Sur 23 Sudoeste 0 969.6 -0.4 72
2020-01-13 08:00:00 6.9 13 Sudoeste 23 Sudoeste 0 969.4 -1.6 69
2020-01-13 07:00:00 7.4 10 Sur 26 Sur 0 969.6 -1.9 69
2020-01-13 06:00:00 7.5 7 Sur 20 Sudoeste 0 970 -2.2 70
2020-01-13 05:00:00 6.7 3 Sudeste 10 Sur 0 971 -2.2 75
2020-01-13 04:00:00 7.5 5 Sur 16 Sur 0 971.5 -2.7 71
2020-01-13 03:00:00 8.3 9 Sur 20 Sur 0 972.2 -2.8 68
2020-01-13 02:00:00 7.7 6 Sur 18 Sur 0 973.2 -2 73
2020-01-13 01:00:00 7.6 5 Sur 12 Sudeste 0 974.2 -1.2 75
2020-01-13 00:00:00 6.8 3 Sudeste 9 Sur 0 975 -0.7 84
2020-01-12 23:00:00 6.2 0 Calma 4 Noroeste 0 975.2 -1.1 91
2020-01-12 22:00:00 5.8 3 Sudeste 6 Noroeste 0 975.4 -0.6 92
2020-01-12 21:00:00 6.5 2 Sur 8 Sur 0 975.7 -0.4 89
2020-01-12 20:00:00 6.6 2 Sudoeste 5 Sudeste 0 976.3 0.3 89
2020-01-12 19:00:00 7.9 3 Sur 4 Sur 0 976 -0.1 79
2020-01-12 18:00:00 11.8 0 Calma 6 Noroeste 0 976.1 -0.4 63
2020-01-12 17:00:00 13.8 5 Sudoeste 8 Oeste 0 976 -1.4 50
2020-01-12 16:00:00 13.9 4 Oeste 9 Oeste 0 976.1 -2.4 49
2020-01-12 15:00:00 11.6 3 Nordeste 8 Este 0 976.5 -2.7 60
2020-01-12 14:00:00 8.9 4 Nordeste 8 Nordeste 0 977.4 -1.8 72
2020-01-12 13:00:00 5.2 4 Norte 8 Noroeste 0 978.5 -0.5 89
2020-01-12 12:00:00 2.9 3 Noroeste 5 Noroeste 0 979.2 0.5 95
2020-01-12 11:00:00 0.8 3 Norte 6 Noroeste 0 979.2 0.7 100
2020-01-12 10:00:00 -0.8 2 Norte 6 Noroeste 0 979 0.8 99
2020-01-12 09:00:00 -1.8 2 Sudeste 5 Sudeste 0 978.7 0.7 99
2020-01-12 08:00:00 -2.4 3 Sudeste 5 Sudeste 0 978.5 0.5 99
2020-01-12 07:00:00 -2.4 0 Calma 5 Sudeste 0 978.2 0 95
2020-01-12 06:00:00 -2.5 2 Oeste 5 Sur 0 978 0 96
2020-01-12 05:00:00 -2.5 2 Nordeste 4 Sur 0 978 -0.1 96
2020-01-12 04:00:00 -1.9 0 Calma 4 Noroeste 0 978.2 0.1 94
2020-01-12 03:00:00 -1.6 3 Sur 4 Sur 0 978 -0.6 96
2020-01-12 02:00:00 -1.2 2 Noroeste 4 Noroeste 0 978.1 -0.3 96
2020-01-12 01:00:00 -0.3 2 Noroeste 5 Sur 0 978.1 -0.5 95
2020-01-12 00:00:00 0.2 0 Calma 4 Noroeste 0 978.6 0.2 95
2020-01-11 23:00:00 1.1 3 Sudeste 5 Sudeste 0 978.4 0.1 97
2020-01-11 22:00:00 1.2 3 Sur 7 Sur 0 978.6 0.5 95
2020-01-11 21:00:00 2.2 4 Sur 7 Sudeste 0 978.4 0.9 92
2020-01-11 20:00:00 4 0 Calma 5 Sur 0 978.3 1.3 86
2020-01-11 19:00:00 6.1 0 Calma 5 Sur 0 978.1 0.9 81
2020-01-11 18:00:00 9.8 3 Sudoeste 8 Sudoeste 0 977.5 0 68
2020-01-11 17:00:00 11.4 5 Sur 14 Sur 0 977 -1.1 57
2020-01-11 16:00:00 11.7 6 Sudoeste 16 Sur 0 977.2 -1.8 54
2020-01-11 15:00:00 10 8 Sudoeste 14 Sudoeste 0 977.5 -2.6 61
2020-01-11 14:00:00 3.9 3 Nordeste 7 Norte 0 978.1 -1.9 100
2020-01-11 13:00:00 1.4 3 Nordeste 5 Noroeste 0 979 -0.5 99
2020-01-11 12:00:00 -0.5 0 Calma 4 Noroeste 0 980.1 0.7 99
2020-01-11 11:00:00 -0.8 0 Calma 4 Noroeste 0 980 0.4 97
2020-01-11 10:00:00 -1.6 0 Calma 3 Este 0 979.5 0.1 99
2020-01-11 09:00:00 -2.4 2 Sudeste 4 Sudeste 0 979.4 0.1 97
2020-01-11 08:00:00 -2.1 0 Calma 4 Este 0 979.6 0 97
2020-01-11 07:00:00 -1.7 2 Sudeste 4 Sudeste 0 979.4 -0.4 98
2020-01-11 06:00:00 -1.5 0 Calma 3 Norte 0 979.3 -0.4 97
2020-01-11 05:00:00 -0.8 0 Calma 3 Sudoeste 0 979.6 -0.4 98
2020-01-11 04:00:00 -1.2 0 Calma 3 Este 0 979.8 -0.8 96
2020-01-11 03:00:00 -0.8 0 Calma 3 Sur 0 979.7 -0.9 95
2020-01-11 02:00:00 -0.5 2 Sudoeste 6 Sudeste 0 980 -0.6 96
2020-01-11 01:00:00 -0.5 3 Sudeste 5 Sudeste 0 980.6 0.2 97
2020-01-11 00:00:00 0.4 4 Sudeste 6 Sur 0 980.6 0.4 95
2020-01-10 23:00:00 0.7 2 Sur 4 Sur 0 980.6 0.5 96
2020-01-10 22:00:00 1.2 3 Sur 6 Sudeste 0 980.4 0.8 97
2020-01-10 21:00:00 2.1 3 Sur 7 Sudeste 0 980.2 0.9 95
2020-01-10 20:00:00 3.3 4 Sudeste 7 Sudeste 0 980.1 0.9 92
2020-01-10 19:00:00 4.8 4 Sudeste 7 Sudeste 0 979.6 0.3 90
2020-01-10 18:00:00 7.6 0 Calma 13 Nordeste 0 979.3 -0.2 83
2020-01-10 17:00:00 8.7 9 Nordeste 16 Nordeste 0 979.2 -0.4 78
2020-01-10 16:00:00 9 12 Este 20 Este 0 979.3 -1.2 74
2020-01-10 15:00:00 8.4 5 Nordeste 20 Nordeste 0 979.5 -0.9 82
2020-01-10 14:00:00 7.9 6 Este 14 Este 0 979.6 -0.8 88
2020-01-10 13:00:00 4.9 4 Sudeste 9 Noroeste 0 980.5 0.6 100
2020-01-10 12:00:00 4.3 3 Oeste 5 Oeste 0 980.4 1.2 100
2020-01-10 11:00:00 3 2 Sudeste 7 Este 0 980.4 1.5 100
2020-01-10 10:00:00 2 0 Calma 5 Sur 0 979.9 1.3 100
2020-01-10 09:00:00 1.1 2 Oeste 6 Sudeste 0.2 979.2 1.4 97
2020-01-10 08:00:00 2.1 2 Sur 6 Sudeste 0 978.9 1.4 99
2020-01-10 07:00:00 2.4 3 Sudeste 9 Sur 0 978.6 1.4 99
2020-01-10 06:00:00 2.5 3 Sudeste 6 Sur 0 977.8 0.7 94
2020-01-10 05:00:00 3.5 3 Sur 8 Sudeste 0 977.5 0.6 99
2020-01-10 04:00:00 3.4 2 Sur 6 Sudoeste 0 977.2 0.4 97
2020-01-10 03:00:00 3.8 3 Sur 12 Sudoeste 0.2 977.1 0.2 98
2020-01-10 02:00:00 4 3 Sudoeste 7 Sudoeste 0 976.9 0.4 98
2020-01-10 01:00:00 4.6 4 Sudoeste 11 Sudoeste 0 976.8 0.9 92
2020-01-10 00:00:00 5.3 4 Sudoeste 21 Oeste 0.2 976.9 1.5 94
2020-01-09 23:00:00 5.1 6 Sudoeste 13 Sudoeste 0 976.5 1.8 91
2020-01-09 22:00:00 5.9 9 Sudoeste 17 Sudoeste 0 975.9 1.7 90
2020-01-09 21:00:00 5.6 8 Sudoeste 15 Sudoeste 0 975.4 1.8 90
2020-01-09 20:00:00 6.2 6 Sudoeste 13 Sudoeste 0 974.7 1.6 91
2020-01-09 19:00:00 6.4 8 Oeste 19 Oeste 0 974.2 1.3 87
2020-01-09 18:00:00 7.9 8 Oeste 16 Oeste 0 973.6 1.7 80
2020-01-09 17:00:00 9.2 10 Oeste 25 Oeste 0 973.1 3 79
2020-01-09 16:00:00 8.9 11 Oeste 46 Sudoeste 0.2 972.9 3.6 86
2020-01-09 15:00:00 8.7 17 Oeste 39 Oeste 2.6 971.9 2.1 93
2020-01-09 14:00:00 11.6 21 Oeste 51 Oeste 2 970.1 -0.4 85
2020-01-09 13:00:00 12.9 15 Sudoeste 38 Sudoeste 0 969.3 -1.5 87
2020-01-09 12:00:00 12.4 19 Sudoeste 41 Sur 0 969.8 -1.2 88
2020-01-09 11:00:00 11.9 18 Sudoeste 38 Sudoeste 0 970.5 -0.8 91
2020-01-09 10:00:00 11.5 17 Sudoeste 39 Sudoeste 0 970.8 -0.9 92
2020-01-09 09:00:00 11.5 10 Sudoeste 25 Sur 0 971 -1.1 90
2020-01-09 08:00:00 11.6 10 Sudoeste 30 Sur 0 971.3 -1.2 89
2020-01-09 07:00:00 11.4 10 Sudoeste 24 Sudoeste 0 971.7 -1.3 91
2020-01-09 06:00:00 11.1 12 Sur 26 Sudoeste 0 972.1 -0.8 93
2020-01-09 05:00:00 10.8 12 Sudoeste 23 Sudoeste 0 972.5 -1 91
2020-01-09 04:00:00 11.2 7 Sudoeste 27 Sur 0 973 -1.1 88
2020-01-09 03:00:00 11.6 11 Sur 27 Sudoeste 0 972.9 -1.9 86
2020-01-09 02:00:00 11.5 10 Sur 21 Sudoeste 0 973.5 -1.7 83
2020-01-09 01:00:00 11.9 5 Sur 13 Sur 0 974.1 -1.3 81
2020-01-09 00:00:00 11.9 4 Sur 8 Sur 0 974.8 -1 83
2020-01-08 23:00:00 12.3 2 Sudeste 11 Sur 0 975.2 -0.5 86
2020-01-08 22:00:00 12.4 4 Sur 10 Sudoeste 0 975.4 -0.3 89
2020-01-08 21:00:00 12.5 3 Sudoeste 12 Sudoeste 0 975.8 0.1 82
2020-01-08 20:00:00 12.6 6 Oeste 9 Oeste 0 975.7 -0.1 86
2020-01-08 19:00:00 13.2 3 Sudoeste 5 Sudoeste 0 975.7 -0.2 83
2020-01-08 18:00:00 13.9 2 Sur 8 Sur 0 975.7 -0.4 80
2020-01-08 17:00:00 14 4 Sudoeste 15 Oeste 0 975.8 -1 77
2020-01-08 16:00:00 15.2 9 Sudoeste 16 Sudoeste 0 975.9 -1.8 64
2020-01-08 15:00:00 15.1 10 Oeste 17 Sudoeste 0 976.1 -2.1 68
2020-01-08 14:00:00 14 8 Sudoeste 14 Sudoeste 0 976.8 -1.6 69
2020-01-08 13:00:00 13.4 5 Oeste 9 Oeste 0 977.7 -0.8 54
2020-01-08 12:00:00 11.5 3 Norte 8 Noroeste 0 978.2 0.1 68
2020-01-08 11:00:00 8.8 3 Noroeste 6 Noroeste 0 978.4 0.4 80
2020-01-08 10:00:00 6.8 2 Sudeste 5 Noroeste 0 978.5 0.6 91
2020-01-08 09:00:00 6.6 2 Noroeste 3 Noroeste 0 978.1 -0.1 90
2020-01-08 08:00:00 6.6 0 Calma 3 Este 0 978 -0.1 89
2020-01-08 07:00:00 6.3 0 Calma 3 Este 0 977.9 -0.4 90
2020-01-08 06:00:00 6.1 0 Calma 5 Noroeste 0 978.2 -0.2 89
2020-01-08 05:00:00 6.1 0 Calma 4 Sudeste 0 978.1 -0.6 91
2020-01-08 04:00:00 5.7 0 Calma 4 Nordeste 0 978.3 -0.1 89
2020-01-08 03:00:00 5.5 2 Este 6 Sudeste 0 978.4 -0.6 89
2020-01-08 02:00:00 5.2 2 Oeste 12 Noroeste 0 978.7 -0.3 89
2020-01-08 01:00:00 6.3 6 Sudeste 13 Sudeste 0 978.4 -0.9 73
2020-01-08 00:00:00 4.2 0 Calma 5 Sur 0 979 -0.1 89
2020-01-07 23:00:00 5.1 0 Calma 6 Sudeste 0 979 0.2 87
2020-01-07 22:00:00 4.3 3 Sudeste 5 Sudeste 0 979.3 0.6 88
2020-01-07 21:00:00 4.1 0 Calma 4 Sur 0 979.1 0.7 84
2020-01-07 20:00:00 5 3 Sur 4 Sudeste 0 978.8 0.6 78
2020-01-07 19:00:00 7 2 Sur 8 Sudeste 0 978.7 0.6 73
2020-01-07 18:00:00 11.7 3 Sudeste 6 Sudeste 0 978.4 0.1 59
2020-01-07 17:00:00 13.8 4 Sudoeste 12 Sudoeste 0 978.2 -0.9 43
2020-01-07 16:00:00 13.7 9 Sudoeste 13 Sur 0 978.1 -2 39
2020-01-07 15:00:00 11.2 5 Norte 10 Nordeste 0 978.3 -2.3 67
2020-01-07 14:00:00 8.8 5 Noroeste 10 Noroeste 0 979.1 -1.3 74
2020-01-07 13:00:00 5.1 5 Sudeste 9 Sudeste 0 980.1 0.3 83
2020-01-07 12:00:00 2.6 3 Noroeste 7 Noroeste 0 980.6 1.5 93
2020-01-07 11:00:00 -0.1 2 Sudoeste 4 Noroeste 0 980.4 1.6 92
2020-01-07 10:00:00 -2.8 0 Calma 3 Noroeste 0 979.8 1.2 97
2020-01-07 09:00:00 -3.3 2 Noroeste 3 Oeste 0 979.1 0.4 95
2020-01-07 08:00:00 -3.1 0 Calma 3 Sudoeste 0 978.8 -0.3 95
2020-01-07 07:00:00 -2.7 0 Calma 3 Sudeste 0 978.6 -0.4 96
2020-01-07 06:00:00 -2.2 0 Calma 4 Noroeste 0 978.7 -0.2 97
2020-01-07 05:00:00 -1.8 3 Noroeste 5 Noroeste 0 979.1 0.7 95
2020-01-07 04:00:00 -1.2 0 Calma 3 Sudeste 0 979 0.2 96
2020-01-07 03:00:00 -1.1 0 Calma 3 Sudoeste 0 978.9 0 95
2020-01-07 02:00:00 -0.7 0 Calma 7 Sudeste 0 978.4 -0.2 98
2020-01-07 01:00:00 -0.7 3 Sur 6 Sudeste 0 978.8 0.2 98
2020-01-07 00:00:00 -0.5 2 Oeste 9 Sudeste 0 978.9 0 94
2020-01-06 23:00:00 0 4 Sudeste 6 Sudeste 0 978.6 0.3 95
2020-01-06 22:00:00 0.4 3 Sur 7 Sur 0 978.6 0.6 94
2020-01-06 21:00:00 1.2 3 Sur 5 Sur 0 978.9 1.4 94
2020-01-06 20:00:00 2.4 0 Calma 8 Sudeste 0 978.3 1.4 91
2020-01-06 19:00:00 3.9 3 Sur 7 Sudeste 0 978 1.8 85
2020-01-06 18:00:00 7.4 0 Calma 9 Sudoeste 0 977.5 1.9 76
2020-01-06 17:00:00 9.7 4 Sur 17 Oeste 0 976.9 0.5 65
2020-01-06 16:00:00 10.2 8 Sudoeste 19 Oeste 0 976.2 -1.6 68
2020-01-06 15:00:00 9.6 8 Sur 19 Sudoeste 0 975.6 -1.8 73
2020-01-06 14:00:00 5.6 3 Sur 8 Sur 0 976.4 -1 99
2020-01-06 13:00:00 2 3 Norte 6 Norte 0 977.8 1.4 99
2020-01-06 12:00:00 -0.1 3 Sudeste 5 Sudeste 0 977.4 1.8 99
2020-01-06 11:00:00 -2.1 2 Sur 7 Sudeste 0 977.4 1.6 100
2020-01-06 10:00:00 -3.3 3 Noroeste 11 Sudeste 0 976.4 0.9 100